sensor_id;sensor_type;location;lat;lon;timestamp;P1;durP1;ratioP1;P2;durP2;ratioP2
71236;SDS011;58984;51.960;5.582;2023-07-13T00:01:37;3.83;;;2.55;;
71236;SDS011;58984;51.960;5.582;2023-07-13T00:04:03;6.78;;;2.42;;
71236;SDS011;58984;51.960;5.582;2023-07-13T00:06:29;4.18;;;2.30;;
71236;SDS011;58984;51.960;5.582;2023-07-13T00:08:58;5.68;;;2.65;;
71236;SDS011;58984;51.960;5.582;2023-07-13T00:11:24;5.78;;;2.05;;
71236;SDS011;58984;51.960;5.582;2023-07-13T00:13:50;4.88;;;2.60;;
71236;SDS011;58984;51.960;5.582;2023-07-13T00:16:16;6.25;;;2.40;;
71236;SDS011;58984;51.960;5.582;2023-07-13T00:18:43;3.78;;;2.38;;
71236;SDS011;58984;51.960;5.582;2023-07-13T00:21:10;4.20;;;2.30;;
71236;SDS011;58984;51.960;5.582;2023-07-13T00:23:38;3.33;;;2.03;;
71236;SDS011;58984;51.960;5.582;2023-07-13T00:26:06;5.38;;;2.50;;
71236;SDS011;58984;51.960;5.582;2023-07-13T00:28:36;6.78;;;2.22;;
71236;SDS011;58984;51.960;5.582;2023-07-13T00:31:02;3.70;;;2.08;;
71236;SDS011;58984;51.960;5.582;2023-07-13T00:33:28;5.30;;;2.50;;
71236;SDS011;58984;51.960;5.582;2023-07-13T00:35:57;5.93;;;2.08;;
71236;SDS011;58984;51.960;5.582;2023-07-13T00:38:23;4.90;;;2.58;;
71236;SDS011;58984;51.960;5.582;2023-07-13T00:40:49;3.92;;;2.17;;
71236;SDS011;58984;51.960;5.582;2023-07-13T00:43:17;4.20;;;2.30;;
71236;SDS011;58984;51.960;5.582;2023-07-13T00:48:17;3.75;;;2.42;;
71236;SDS011;58984;51.960;5.582;2023-07-13T00:50:47;3.30;;;2.30;;
71236;SDS011;58984;51.960;5.582;2023-07-13T00:53:15;5.63;;;2.63;;
71236;SDS011;58984;51.960;5.582;2023-07-13T00:55:42;4.22;;;2.30;;
71236;SDS011;58984;51.960;5.582;2023-07-13T00:58:08;7.40;;;2.25;;
71236;SDS011;58984;51.960;5.582;2023-07-13T01:00:34;4.75;;;2.00;;
71236;SDS011;58984;51.960;5.582;2023-07-13T01:03:03;3.17;;;2.22;;
71236;SDS011;58984;51.960;5.582;2023-07-13T01:05:29;3.22;;;1.98;;
71236;SDS011;58984;51.960;5.582;2023-07-13T01:07:57;4.82;;;2.50;;
71236;SDS011;58984;51.960;5.582;2023-07-13T01:10:25;8.32;;;2.53;;
71236;SDS011;58984;51.960;5.582;2023-07-13T01:12:52;5.13;;;2.33;;
71236;SDS011;58984;51.960;5.582;2023-07-13T01:18:06;3.85;;;2.25;;
71236;SDS011;58984;51.960;5.582;2023-07-13T01:20:35;3.80;;;1.95;;
71236;SDS011;58984;51.960;5.582;2023-07-13T01:23:06;4.13;;;2.25;;
71236;SDS011;58984;51.960;5.582;2023-07-13T01:25:35;4.10;;;2.33;;
71236;SDS011;58984;51.960;5.582;2023-07-13T01:28:03;3.35;;;2.00;;
71236;SDS011;58984;51.960;5.582;2023-07-13T01:30:30;3.13;;;1.98;;
71236;SDS011;58984;51.960;5.582;2023-07-13T01:32:57;5.28;;;2.17;;
71236;SDS011;58984;51.960;5.582;2023-07-13T01:35:23;4.38;;;2.30;;
71236;SDS011;58984;51.960;5.582;2023-07-13T01:37:50;5.72;;;2.22;;
71236;SDS011;58984;51.960;5.582;2023-07-13T01:40:16;4.60;;;2.17;;
71236;SDS011;58984;51.960;5.582;2023-07-13T01:42:42;5.07;;;2.38;;
71236;SDS011;58984;51.960;5.582;2023-07-13T01:45:08;2.92;;;1.73;;
71236;SDS011;58984;51.960;5.582;2023-07-13T01:47:34;3.80;;;2.28;;
71236;SDS011;58984;51.960;5.582;2023-07-13T01:50:00;4.28;;;2.30;;
71236;SDS011;58984;51.960;5.582;2023-07-13T01:52:25;5.03;;;2.13;;
71236;SDS011;58984;51.960;5.582;2023-07-13T01:54:51;4.43;;;2.05;;
71236;SDS011;58984;51.960;5.582;2023-07-13T01:57:16;4.00;;;1.95;;
71236;SDS011;58984;51.960;5.582;2023-07-13T01:59:42;5.25;;;2.30;;
71236;SDS011;58984;51.960;5.582;2023-07-13T02:02:08;5.30;;;2.40;;
71236;SDS011;58984;51.960;5.582;2023-07-13T02:04:34;5.28;;;2.25;;
71236;SDS011;58984;51.960;5.582;2023-07-13T02:06:59;8.82;;;2.42;;
71236;SDS011;58984;51.960;5.582;2023-07-13T02:09:25;4.05;;;2.42;;
71236;SDS011;58984;51.960;5.582;2023-07-13T02:11:51;4.32;;;2.08;;
71236;SDS011;58984;51.960;5.582;2023-07-13T02:14:17;3.85;;;2.25;;
71236;SDS011;58984;51.960;5.582;2023-07-13T02:16:42;5.13;;;2.47;;
71236;SDS011;58984;51.960;5.582;2023-07-13T02:19:08;3.85;;;2.33;;
71236;SDS011;58984;51.960;5.582;2023-07-13T02:21:34;3.40;;;2.25;;
71236;SDS011;58984;51.960;5.582;2023-07-13T02:23:59;7.68;;;2.40;;
71236;SDS011;58984;51.960;5.582;2023-07-13T02:26:26;3.72;;;2.55;;
71236;SDS011;58984;51.960;5.582;2023-07-13T02:28:52;5.70;;;2.83;;
71236;SDS011;58984;51.960;5.582;2023-07-13T02:31:17;3.40;;;2.40;;
71236;SDS011;58984;51.960;5.582;2023-07-13T02:33:43;6.40;;;2.80;;
71236;SDS011;58984;51.960;5.582;2023-07-13T02:36:09;4.82;;;2.30;;
71236;SDS011;58984;51.960;5.582;2023-07-13T02:38:36;4.55;;;2.50;;
71236;SDS011;58984;51.960;5.582;2023-07-13T02:41:05;4.50;;;2.20;;
71236;SDS011;58984;51.960;5.582;2023-07-13T02:43:33;5.63;;;2.85;;
71236;SDS011;58984;51.960;5.582;2023-07-13T02:46:00;9.30;;;2.97;;
71236;SDS011;58984;51.960;5.582;2023-07-13T02:51:01;6.25;;;2.63;;
71236;SDS011;58984;51.960;5.582;2023-07-13T02:53:27;5.20;;;2.65;;
71236;SDS011;58984;51.960;5.582;2023-07-13T02:55:53;4.57;;;2.40;;
71236;SDS011;58984;51.960;5.582;2023-07-13T02:58:19;5.30;;;2.88;;
71236;SDS011;58984;51.960;5.582;2023-07-13T03:00:45;5.40;;;2.80;;
71236;SDS011;58984;51.960;5.582;2023-07-13T03:03:12;6.85;;;2.42;;
71236;SDS011;58984;51.960;5.582;2023-07-13T03:05:40;4.43;;;2.70;;
71236;SDS011;58984;51.960;5.582;2023-07-13T03:08:07;4.95;;;2.80;;
71236;SDS011;58984;51.960;5.582;2023-07-13T03:10:33;7.22;;;2.88;;
71236;SDS011;58984;51.960;5.582;2023-07-13T03:12:59;4.85;;;2.63;;
71236;SDS011;58984;51.960;5.582;2023-07-13T03:15:25;6.53;;;3.20;;
71236;SDS011;58984;51.960;5.582;2023-07-13T03:17:51;5.43;;;2.85;;
71236;SDS011;58984;51.960;5.582;2023-07-13T03:20:17;7.10;;;3.17;;
71236;SDS011;58984;51.960;5.582;2023-07-13T03:22:44;5.72;;;2.72;;
71236;SDS011;58984;51.960;5.582;2023-07-13T03:25:10;8.02;;;3.28;;
71236;SDS011;58984;51.960;5.582;2023-07-13T03:27:36;9.57;;;3.08;;
71236;SDS011;58984;51.960;5.582;2023-07-13T03:30:02;10.35;;;3.13;;
71236;SDS011;58984;51.960;5.582;2023-07-13T03:32:31;6.50;;;2.88;;
71236;SDS011;58984;51.960;5.582;2023-07-13T03:34:57;4.70;;;2.83;;
71236;SDS011;58984;51.960;5.582;2023-07-13T03:37:23;7.85;;;2.95;;
71236;SDS011;58984;51.960;5.582;2023-07-13T03:39:49;9.13;;;3.38;;
71236;SDS011;58984;51.960;5.582;2023-07-13T03:42:15;8.55;;;3.20;;
71236;SDS011;58984;51.960;5.582;2023-07-13T03:44:41;5.10;;;2.65;;
71236;SDS011;58984;51.960;5.582;2023-07-13T03:47:07;11.63;;;3.35;;
71236;SDS011;58984;51.960;5.582;2023-07-13T03:49:34;7.80;;;3.17;;
71236;SDS011;58984;51.960;5.582;2023-07-13T03:52:00;7.38;;;3.47;;
71236;SDS011;58984;51.960;5.582;2023-07-13T03:54:26;7.57;;;3.45;;
71236;SDS011;58984;51.960;5.582;2023-07-13T03:56:51;5.60;;;3.05;;
71236;SDS011;58984;51.960;5.582;2023-07-13T03:59:17;8.13;;;3.42;;
71236;SDS011;58984;51.960;5.582;2023-07-13T04:01:43;6.45;;;3.20;;
71236;SDS011;58984;51.960;5.582;2023-07-13T04:04:09;6.88;;;3.70;;
71236;SDS011;58984;51.960;5.582;2023-07-13T04:06:35;8.60;;;3.08;;
71236;SDS011;58984;51.960;5.582;2023-07-13T04:09:02;11.18;;;3.72;;
71236;SDS011;58984;51.960;5.582;2023-07-13T04:11:32;7.53;;;3.63;;
71236;SDS011;58984;51.960;5.582;2023-07-13T04:14:01;7.63;;;3.42;;
71236;SDS011;58984;51.960;5.582;2023-07-13T04:16:27;9.32;;;3.08;;
71236;SDS011;58984;51.960;5.582;2023-07-13T04:18:54;7.90;;;3.88;;
71236;SDS011;58984;51.960;5.582;2023-07-13T04:21:24;8.80;;;3.28;;
71236;SDS011;58984;51.960;5.582;2023-07-13T04:23:52;9.38;;;4.03;;
71236;SDS011;58984;51.960;5.582;2023-07-13T04:26:17;7.22;;;3.42;;
71236;SDS011;58984;51.960;5.582;2023-07-13T04:28:46;6.60;;;3.45;;
71236;SDS011;58984;51.960;5.582;2023-07-13T04:31:15;7.10;;;3.45;;
71236;SDS011;58984;51.960;5.582;2023-07-13T04:33:41;9.27;;;3.95;;
71236;SDS011;58984;51.960;5.582;2023-07-13T04:36:08;11.20;;;3.72;;
71236;SDS011;58984;51.960;5.582;2023-07-13T04:38:37;6.43;;;3.13;;
71236;SDS011;58984;51.960;5.582;2023-07-13T04:41:04;5.82;;;3.63;;
71236;SDS011;58984;51.960;5.582;2023-07-13T04:43:32;7.78;;;4.03;;
71236;SDS011;58984;51.960;5.582;2023-07-13T04:46:03;6.82;;;3.90;;
71236;SDS011;58984;51.960;5.582;2023-07-13T04:48:36;9.98;;;4.10;;
71236;SDS011;58984;51.960;5.582;2023-07-13T04:51:02;8.10;;;4.18;;
71236;SDS011;58984;51.960;5.582;2023-07-13T04:53:29;7.80;;;3.70;;
71236;SDS011;58984;51.960;5.582;2023-07-13T04:55:55;9.25;;;4.53;;
71236;SDS011;58984;51.960;5.582;2023-07-13T04:58:22;7.85;;;3.97;;
71236;SDS011;58984;51.960;5.582;2023-07-13T05:00:48;9.32;;;3.92;;
71236;SDS011;58984;51.960;5.582;2023-07-13T05:03:14;7.55;;;3.83;;
71236;SDS011;58984;51.960;5.582;2023-07-13T05:05:43;8.02;;;4.15;;
71236;SDS011;58984;51.960;5.582;2023-07-13T05:08:08;7.90;;;3.95;;
71236;SDS011;58984;51.960;5.582;2023-07-13T05:10:35;7.80;;;3.65;;
71236;SDS011;58984;51.960;5.582;2023-07-13T05:13:01;9.43;;;4.30;;
71236;SDS011;58984;51.960;5.582;2023-07-13T05:15:28;5.35;;;3.80;;
71236;SDS011;58984;51.960;5.582;2023-07-13T05:17:54;12.18;;;4.40;;
71236;SDS011;58984;51.960;5.582;2023-07-13T05:20:20;9.25;;;4.38;;
71236;SDS011;58984;51.960;5.582;2023-07-13T05:22:47;10.80;;;4.28;;
71236;SDS011;58984;51.960;5.582;2023-07-13T05:25:13;7.50;;;4.20;;
71236;SDS011;58984;51.960;5.582;2023-07-13T05:27:40;14.90;;;4.80;;
71236;SDS011;58984;51.960;5.582;2023-07-13T05:30:05;7.15;;;4.00;;
71236;SDS011;58984;51.960;5.582;2023-07-13T05:34:58;9.73;;;4.22;;
71236;SDS011;58984;51.960;5.582;2023-07-13T05:37:27;10.73;;;4.93;;
71236;SDS011;58984;51.960;5.582;2023-07-13T05:39:53;9.77;;;4.97;;
71236;SDS011;58984;51.960;5.582;2023-07-13T05:42:19;12.93;;;5.60;;
71236;SDS011;58984;51.960;5.582;2023-07-13T05:44:44;11.60;;;5.47;;
71236;SDS011;58984;51.960;5.582;2023-07-13T05:47:13;13.60;;;5.43;;
71236;SDS011;58984;51.960;5.582;2023-07-13T05:49:40;8.30;;;5.00;;
71236;SDS011;58984;51.960;5.582;2023-07-13T05:52:06;14.27;;;5.93;;
71236;SDS011;58984;51.960;5.582;2023-07-13T05:54:32;9.82;;;5.72;;
71236;SDS011;58984;51.960;5.582;2023-07-13T05:56:57;13.35;;;5.45;;
71236;SDS011;58984;51.960;5.582;2023-07-13T05:59:23;12.90;;;5.57;;
71236;SDS011;58984;51.960;5.582;2023-07-13T06:01:49;17.10;;;6.35;;
71236;SDS011;58984;51.960;5.582;2023-07-13T06:04:17;11.98;;;6.25;;
71236;SDS011;58984;51.960;5.582;2023-07-13T06:06:43;13.50;;;6.82;;
71236;SDS011;58984;51.960;5.582;2023-07-13T06:09:09;15.23;;;6.30;;
71236;SDS011;58984;51.960;5.582;2023-07-13T06:11:34;11.75;;;6.80;;
71236;SDS011;58984;51.960;5.582;2023-07-13T06:14:00;12.77;;;7.38;;
71236;SDS011;58984;51.960;5.582;2023-07-13T06:16:28;13.52;;;7.13;;
71236;SDS011;58984;51.960;5.582;2023-07-13T06:18:54;12.73;;;6.78;;
71236;SDS011;58984;51.960;5.582;2023-07-13T06:21:32;14.80;;;6.60;;
71236;SDS011;58984;51.960;5.582;2023-07-13T06:23:58;17.63;;;7.78;;
71236;SDS011;58984;51.960;5.582;2023-07-13T06:26:23;10.70;;;6.57;;
71236;SDS011;58984;51.960;5.582;2023-07-13T06:28:49;14.43;;;7.40;;
71236;SDS011;58984;51.960;5.582;2023-07-13T06:31:15;11.35;;;7.22;;
71236;SDS011;58984;51.960;5.582;2023-07-13T06:33:41;11.82;;;7.72;;
71236;SDS011;58984;51.960;5.582;2023-07-13T06:36:09;16.92;;;7.50;;
71236;SDS011;58984;51.960;5.582;2023-07-13T06:38:36;10.82;;;7.00;;
71236;SDS011;58984;51.960;5.582;2023-07-13T06:41:02;13.88;;;7.53;;
71236;SDS011;58984;51.960;5.582;2023-07-13T06:43:30;15.48;;;8.02;;
71236;SDS011;58984;51.960;5.582;2023-07-13T06:45:57;14.38;;;7.45;;
71236;SDS011;58984;51.960;5.582;2023-07-13T06:48:23;13.25;;;7.60;;
71236;SDS011;58984;51.960;5.582;2023-07-13T06:50:49;12.40;;;7.43;;
71236;SDS011;58984;51.960;5.582;2023-07-13T06:53:17;13.90;;;7.50;;
71236;SDS011;58984;51.960;5.582;2023-07-13T06:55:43;11.80;;;7.88;;
71236;SDS011;58984;51.960;5.582;2023-07-13T06:58:10;15.50;;;8.07;;
71236;SDS011;58984;51.960;5.582;2023-07-13T07:00:37;16.50;;;7.68;;
71236;SDS011;58984;51.960;5.582;2023-07-13T07:03:05;13.30;;;8.15;;
71236;SDS011;58984;51.960;5.582;2023-07-13T07:05:33;14.18;;;8.27;;
71236;SDS011;58984;51.960;5.582;2023-07-13T07:07:59;11.98;;;7.82;;
71236;SDS011;58984;51.960;5.582;2023-07-13T07:10:29;13.00;;;7.75;;
71236;SDS011;58984;51.960;5.582;2023-07-13T07:12:55;12.93;;;8.38;;
71236;SDS011;58984;51.960;5.582;2023-07-13T07:15:21;13.95;;;8.32;;
71236;SDS011;58984;51.960;5.582;2023-07-13T07:17:46;14.35;;;8.50;;
71236;SDS011;58984;51.960;5.582;2023-07-13T07:20:12;13.02;;;8.38;;
71236;SDS011;58984;51.960;5.582;2023-07-13T07:22:40;15.63;;;8.85;;
71236;SDS011;58984;51.960;5.582;2023-07-13T07:25:11;15.73;;;8.93;;
71236;SDS011;58984;51.960;5.582;2023-07-13T07:27:37;15.15;;;9.57;;
71236;SDS011;58984;51.960;5.582;2023-07-13T07:30:04;17.65;;;9.00;;
71236;SDS011;58984;51.960;5.582;2023-07-13T07:32:30;16.85;;;9.07;;
71236;SDS011;58984;51.960;5.582;2023-07-13T07:34:57;17.45;;;9.50;;
71236;SDS011;58984;51.960;5.582;2023-07-13T07:37:26;12.85;;;9.02;;
71236;SDS011;58984;51.960;5.582;2023-07-13T07:39:54;15.93;;;9.18;;
71236;SDS011;58984;51.960;5.582;2023-07-13T07:42:19;12.82;;;9.25;;
71236;SDS011;58984;51.960;5.582;2023-07-13T07:44:46;14.85;;;8.75;;
71236;SDS011;58984;51.960;5.582;2023-07-13T07:47:11;15.40;;;8.88;;
71236;SDS011;58984;51.960;5.582;2023-07-13T07:49:37;15.63;;;9.18;;
71236;SDS011;58984;51.960;5.582;2023-07-13T07:52:06;13.48;;;8.40;;
71236;SDS011;58984;51.960;5.582;2023-07-13T07:54:32;13.65;;;8.75;;
71236;SDS011;58984;51.960;5.582;2023-07-13T07:56:58;12.82;;;8.45;;
71236;SDS011;58984;51.960;5.582;2023-07-13T07:59:24;11.70;;;8.25;;
71236;SDS011;58984;51.960;5.582;2023-07-13T08:01:50;12.65;;;9.05;;
71236;SDS011;58984;51.960;5.582;2023-07-13T08:04:18;14.70;;;9.02;;
71236;SDS011;58984;51.960;5.582;2023-07-13T08:06:44;16.20;;;8.32;;
71236;SDS011;58984;51.960;5.582;2023-07-13T08:09:10;13.88;;;8.55;;
71236;SDS011;58984;51.960;5.582;2023-07-13T08:11:35;14.73;;;7.53;;
71236;SDS011;58984;51.960;5.582;2023-07-13T08:14:01;10.82;;;7.72;;
71236;SDS011;58984;51.960;5.582;2023-07-13T08:16:27;14.40;;;8.27;;
71236;SDS011;58984;51.960;5.582;2023-07-13T08:18:57;19.60;;;9.07;;
71236;SDS011;58984;51.960;5.582;2023-07-13T08:21:23;16.08;;;9.20;;
71236;SDS011;58984;51.960;5.582;2023-07-13T08:23:49;11.60;;;8.32;;
71236;SDS011;58984;51.960;5.582;2023-07-13T08:26:15;16.48;;;8.93;;
71236;SDS011;58984;51.960;5.582;2023-07-13T08:28:40;13.18;;;8.35;;
71236;SDS011;58984;51.960;5.582;2023-07-13T08:31:06;15.63;;;8.07;;
71236;SDS011;58984;51.960;5.582;2023-07-13T08:33:34;16.08;;;8.52;;
71236;SDS011;58984;51.960;5.582;2023-07-13T08:36:00;12.15;;;7.82;;
71236;SDS011;58984;51.960;5.582;2023-07-13T08:38:26;11.98;;;7.70;;
71236;SDS011;58984;51.960;5.582;2023-07-13T08:40:56;9.55;;;7.13;;
71236;SDS011;58984;51.960;5.582;2023-07-13T08:43:26;12.10;;;7.43;;
71236;SDS011;58984;51.960;5.582;2023-07-13T08:45:59;10.93;;;6.88;;
71236;SDS011;58984;51.960;5.582;2023-07-13T08:48:39;14.45;;;7.78;;
71236;SDS011;58984;51.960;5.582;2023-07-13T08:54:03;11.50;;;6.90;;
71236;SDS011;58984;51.960;5.582;2023-07-13T08:56:35;13.73;;;6.25;;
71236;SDS011;58984;51.960;5.582;2023-07-13T08:59:03;8.85;;;6.60;;
71236;SDS011;58984;51.960;5.582;2023-07-13T09:05:22;7.68;;;5.53;;
71236;SDS011;58984;51.960;5.582;2023-07-13T09:10:48;6.70;;;5.47;;
71236;SDS011;58984;51.960;5.582;2023-07-13T09:13:30;9.63;;;5.72;;
71236;SDS011;58984;51.960;5.582;2023-07-13T09:15:59;9.48;;;5.43;;
71236;SDS011;58984;51.960;5.582;2023-07-13T09:21:10;7.15;;;4.43;;
71236;SDS011;58984;51.960;5.582;2023-07-13T09:23:48;6.45;;;4.95;;
71236;SDS011;58984;51.960;5.582;2023-07-13T09:26:21;7.40;;;4.60;;
71236;SDS011;58984;51.960;5.582;2023-07-13T09:28:50;6.75;;;4.30;;
71236;SDS011;58984;51.960;5.582;2023-07-13T09:31:39;9.57;;;4.93;;
71236;SDS011;58984;51.960;5.582;2023-07-13T09:34:10;8.85;;;4.90;;
71236;SDS011;58984;51.960;5.582;2023-07-13T09:36:37;8.63;;;4.57;;
71236;SDS011;58984;51.960;5.582;2023-07-13T09:39:29;7.53;;;4.68;;
71236;SDS011;58984;51.960;5.582;2023-07-13T09:42:01;8.48;;;4.60;;
71236;SDS011;58984;51.960;5.582;2023-07-13T09:44:37;12.38;;;5.30;;
71236;SDS011;58984;51.960;5.582;2023-07-13T09:47:18;7.53;;;4.90;;
71236;SDS011;58984;51.960;5.582;2023-07-13T09:49:54;7.60;;;4.68;;
71236;SDS011;58984;51.960;5.582;2023-07-13T09:52:46;6.50;;;4.60;;
71236;SDS011;58984;51.960;5.582;2023-07-13T09:55:23;6.93;;;4.60;;
71236;SDS011;58984;51.960;5.582;2023-07-13T09:57:51;9.55;;;4.57;;
71236;SDS011;58984;51.960;5.582;2023-07-13T10:00:35;9.90;;;4.82;;
71236;SDS011;58984;51.960;5.582;2023-07-13T10:05:48;7.10;;;4.65;;
71236;SDS011;58984;51.960;5.582;2023-07-13T10:08:25;6.03;;;4.78;;
71236;SDS011;58984;51.960;5.582;2023-07-13T10:11:00;9.65;;;5.35;;
71236;SDS011;58984;51.960;5.582;2023-07-13T10:13:35;6.22;;;4.90;;
71236;SDS011;58984;51.960;5.582;2023-07-13T10:16:05;6.97;;;4.05;;
71236;SDS011;58984;51.960;5.582;2023-07-13T10:18:43;7.97;;;4.55;;
71236;SDS011;58984;51.960;5.582;2023-07-13T10:21:11;8.25;;;4.60;;
71236;SDS011;58984;51.960;5.582;2023-07-13T10:23:39;6.50;;;4.30;;
71236;SDS011;58984;51.960;5.582;2023-07-13T10:26:09;7.28;;;4.40;;
71236;SDS011;58984;51.960;5.582;2023-07-13T10:28:40;6.53;;;4.47;;
71236;SDS011;58984;51.960;5.582;2023-07-13T10:31:11;4.68;;;4.03;;
71236;SDS011;58984;51.960;5.582;2023-07-13T10:33:39;5.95;;;4.10;;
71236;SDS011;58984;51.960;5.582;2023-07-13T10:39:19;5.90;;;4.15;;
71236;SDS011;58984;51.960;5.582;2023-07-13T10:41:58;7.10;;;4.18;;
71236;SDS011;58984;51.960;5.582;2023-07-13T10:44:28;8.05;;;3.90;;
71236;SDS011;58984;51.960;5.582;2023-07-13T10:46:56;8.25;;;3.75;;
71236;SDS011;58984;51.960;5.582;2023-07-13T10:49:43;6.25;;;3.78;;
71236;SDS011;58984;51.960;5.582;2023-07-13T10:53:00;9.68;;;4.03;;
71236;SDS011;58984;51.960;5.582;2023-07-13T10:55:40;5.45;;;3.60;;
71236;SDS011;58984;51.960;5.582;2023-07-13T11:00:49;4.88;;;3.65;;
71236;SDS011;58984;51.960;5.582;2023-07-13T11:03:22;8.02;;;3.50;;
71236;SDS011;58984;51.960;5.582;2023-07-13T11:06:58;4.47;;;3.50;;
71236;SDS011;58984;51.960;5.582;2023-07-13T11:08:54;3.97;;;2.97;;
71236;SDS011;58984;51.960;5.582;2023-07-13T11:18:45;3.92;;;2.88;;
71236;SDS011;58984;51.960;5.582;2023-07-13T11:21:34;5.25;;;3.03;;
71236;SDS011;58984;51.960;5.582;2023-07-13T11:31:56;6.40;;;3.30;;
71236;SDS011;58984;51.960;5.582;2023-07-13T11:36:53;5.03;;;3.08;;
71236;SDS011;58984;51.960;5.582;2023-07-13T11:39:31;4.57;;;2.75;;
71236;SDS011;58984;51.960;5.582;2023-07-13T11:42:03;5.03;;;2.97;;
71236;SDS011;58984;51.960;5.582;2023-07-13T11:44:45;5.50;;;2.95;;
71236;SDS011;58984;51.960;5.582;2023-07-13T11:49:54;3.65;;;2.47;;
71236;SDS011;58984;51.960;5.582;2023-07-13T11:52:57;3.72;;;2.25;;
71236;SDS011;58984;51.960;5.582;2023-07-13T11:55:19;3.35;;;2.30;;
71236;SDS011;58984;51.960;5.582;2023-07-13T11:57:57;4.75;;;2.53;;
71236;SDS011;58984;51.960;5.582;2023-07-13T12:00:31;2.80;;;2.42;;
71236;SDS011;58984;51.960;5.582;2023-07-13T12:02:59;5.13;;;2.47;;
71236;SDS011;58984;51.960;5.582;2023-07-13T12:05:27;2.75;;;2.10;;
71236;SDS011;58984;51.960;5.582;2023-07-13T12:07:54;6.07;;;2.53;;
71236;SDS011;58984;51.960;5.582;2023-07-13T12:10:24;5.13;;;2.20;;
71236;SDS011;58984;51.960;5.582;2023-07-13T12:13:00;7.85;;;2.60;;
71236;SDS011;58984;51.960;5.582;2023-07-13T12:15:38;3.97;;;2.35;;
71236;SDS011;58984;51.960;5.582;2023-07-13T12:18:38;3.80;;;2.40;;
71236;SDS011;58984;51.960;5.582;2023-07-13T12:20:58;3.47;;;2.53;;
71236;SDS011;58984;51.960;5.582;2023-07-13T12:25:53;2.63;;;2.22;;
71236;SDS011;58984;51.960;5.582;2023-07-13T12:31:04;3.78;;;2.40;;
71236;SDS011;58984;51.960;5.582;2023-07-13T12:33:32;4.78;;;2.72;;
71236;SDS011;58984;51.960;5.582;2023-07-13T12:36:02;3.83;;;2.30;;
71236;SDS011;58984;51.960;5.582;2023-07-13T12:38:30;3.55;;;2.63;;
71236;SDS011;58984;51.960;5.582;2023-07-13T12:40:57;2.55;;;2.20;;
71236;SDS011;58984;51.960;5.582;2023-07-13T12:43:25;3.25;;;2.17;;
71236;SDS011;58984;51.960;5.582;2023-07-13T12:45:59;4.65;;;2.67;;
71236;SDS011;58984;51.960;5.582;2023-07-13T12:48:28;3.55;;;2.63;;
71236;SDS011;58984;51.960;5.582;2023-07-13T12:50:54;4.80;;;2.40;;
71236;SDS011;58984;51.960;5.582;2023-07-13T12:53:22;3.78;;;2.38;;
71236;SDS011;58984;51.960;5.582;2023-07-13T12:55:53;4.22;;;2.35;;
71236;SDS011;58984;51.960;5.582;2023-07-13T12:58:28;3.70;;;2.17;;
71236;SDS011;58984;51.960;5.582;2023-07-13T13:00:57;4.53;;;2.88;;
71236;SDS011;58984;51.960;5.582;2023-07-13T13:06:02;4.38;;;2.53;;
71236;SDS011;58984;51.960;5.582;2023-07-13T13:08:45;4.47;;;2.60;;
71236;SDS011;58984;51.960;5.582;2023-07-13T13:11:13;2.50;;;2.30;;
71236;SDS011;58984;51.960;5.582;2023-07-13T13:13:41;3.85;;;1.92;;
71236;SDS011;58984;51.960;5.582;2023-07-13T13:16:32;4.20;;;2.40;;
71236;SDS011;58984;51.960;5.582;2023-07-13T13:19:12;2.53;;;2.00;;
71236;SDS011;58984;51.960;5.582;2023-07-13T13:21:40;3.00;;;2.42;;
71236;SDS011;58984;51.960;5.582;2023-07-13T13:24:14;3.00;;;2.20;;
71236;SDS011;58984;51.960;5.582;2023-07-13T13:26:42;2.17;;;1.92;;
71236;SDS011;58984;51.960;5.582;2023-07-13T13:29:14;3.97;;;2.20;;
71236;SDS011;58984;51.960;5.582;2023-07-13T13:31:50;2.22;;;2.00;;
71236;SDS011;58984;51.960;5.582;2023-07-13T13:34:17;3.00;;;2.17;;
71236;SDS011;58984;51.960;5.582;2023-07-13T13:36:44;4.60;;;2.50;;
71236;SDS011;58984;51.960;5.582;2023-07-13T13:39:22;3.92;;;2.15;;
71236;SDS011;58984;51.960;5.582;2023-07-13T13:41:50;2.45;;;2.10;;
71236;SDS011;58984;51.960;5.582;2023-07-13T13:44:18;2.90;;;2.38;;
71236;SDS011;58984;51.960;5.582;2023-07-13T13:46:45;4.35;;;2.70;;
71236;SDS011;58984;51.960;5.582;2023-07-13T13:49:14;4.43;;;2.90;;
71236;SDS011;58984;51.960;5.582;2023-07-13T13:51:45;5.32;;;2.92;;
71236;SDS011;58984;51.960;5.582;2023-07-13T13:54:12;4.05;;;2.22;;
71236;SDS011;58984;51.960;5.582;2023-07-13T13:56:40;3.97;;;2.30;;
71236;SDS011;58984;51.960;5.582;2023-07-13T13:59:10;3.55;;;2.53;;
71236;SDS011;58984;51.960;5.582;2023-07-13T14:01:37;6.60;;;3.17;;
71236;SDS011;58984;51.960;5.582;2023-07-13T14:04:03;5.07;;;2.60;;
71236;SDS011;58984;51.960;5.582;2023-07-13T14:06:30;4.75;;;2.13;;
71236;SDS011;58984;51.960;5.582;2023-07-13T14:08:57;3.35;;;2.30;;
71236;SDS011;58984;51.960;5.582;2023-07-13T14:11:24;2.67;;;2.10;;
71236;SDS011;58984;51.960;5.582;2023-07-13T14:13:53;4.25;;;2.42;;
71236;SDS011;58984;51.960;5.582;2023-07-13T14:16:24;3.47;;;2.10;;
71236;SDS011;58984;51.960;5.582;2023-07-13T14:18:54;3.13;;;2.45;;
71236;SDS011;58984;51.960;5.582;2023-07-13T14:21:24;4.40;;;2.28;;
71236;SDS011;58984;51.960;5.582;2023-07-13T14:23:49;3.70;;;2.58;;
71236;SDS011;58984;51.960;5.582;2023-07-13T14:26:22;3.40;;;2.28;;
71236;SDS011;58984;51.960;5.582;2023-07-13T14:28:56;4.45;;;2.13;;
71236;SDS011;58984;51.960;5.582;2023-07-13T14:31:23;4.10;;;2.28;;
71236;SDS011;58984;51.960;5.582;2023-07-13T14:33:50;2.90;;;2.28;;
71236;SDS011;58984;51.960;5.582;2023-07-13T14:36:33;4.03;;;2.10;;
71236;SDS011;58984;51.960;5.582;2023-07-13T14:39:19;3.17;;;2.30;;
71236;SDS011;58984;51.960;5.582;2023-07-13T14:41:49;3.30;;;2.47;;
71236;SDS011;58984;51.960;5.582;2023-07-13T14:44:21;3.17;;;2.53;;
71236;SDS011;58984;51.960;5.582;2023-07-13T14:47:06;6.40;;;2.35;;
71236;SDS011;58984;51.960;5.582;2023-07-13T14:49:39;5.05;;;2.22;;
71236;SDS011;58984;51.960;5.582;2023-07-13T14:52:18;4.10;;;2.33;;
71236;SDS011;58984;51.960;5.582;2023-07-13T14:54:46;4.10;;;2.22;;
71236;SDS011;58984;51.960;5.582;2023-07-13T14:57:12;4.72;;;2.28;;
71236;SDS011;58984;51.960;5.582;2023-07-13T14:59:43;3.10;;;2.08;;
71236;SDS011;58984;51.960;5.582;2023-07-13T15:02:23;4.68;;;2.75;;
71236;SDS011;58984;51.960;5.582;2023-07-13T15:04:59;2.97;;;2.05;;
71236;SDS011;58984;51.960;5.582;2023-07-13T15:07:30;3.22;;;2.00;;
71236;SDS011;58984;51.960;5.582;2023-07-13T15:09:56;3.15;;;2.30;;
71236;SDS011;58984;51.960;5.582;2023-07-13T15:12:21;5.45;;;2.65;;
71236;SDS011;58984;51.960;5.582;2023-07-13T15:14:47;3.67;;;2.22;;
71236;SDS011;58984;51.960;5.582;2023-07-13T15:17:33;2.10;;;1.63;;
71236;SDS011;58984;51.960;5.582;2023-07-13T15:20:26;2.42;;;1.85;;
71236;SDS011;58984;51.960;5.582;2023-07-13T15:22:51;3.55;;;2.40;;
71236;SDS011;58984;51.960;5.582;2023-07-13T15:25:19;3.22;;;2.30;;
71236;SDS011;58984;51.960;5.582;2023-07-13T15:27:46;3.85;;;1.98;;
71236;SDS011;58984;51.960;5.582;2023-07-13T15:30:22;2.78;;;2.05;;
71236;SDS011;58984;51.960;5.582;2023-07-13T15:32:56;4.38;;;2.47;;
71236;SDS011;58984;51.960;5.582;2023-07-13T15:35:33;3.38;;;2.20;;
71236;SDS011;58984;51.960;5.582;2023-07-13T15:37:58;4.60;;;2.10;;
71236;SDS011;58984;51.960;5.582;2023-07-13T15:40:24;2.40;;;2.15;;
71236;SDS011;58984;51.960;5.582;2023-07-13T15:42:50;2.28;;;1.65;;
71236;SDS011;58984;51.960;5.582;2023-07-13T15:45:18;3.40;;;2.05;;
71236;SDS011;58984;51.960;5.582;2023-07-13T15:47:48;2.20;;;2.00;;
71236;SDS011;58984;51.960;5.582;2023-07-13T15:50:16;2.45;;;2.00;;
71236;SDS011;58984;51.960;5.582;2023-07-13T15:52:44;3.22;;;2.30;;
71236;SDS011;58984;51.960;5.582;2023-07-13T15:55:13;2.10;;;1.90;;
71236;SDS011;58984;51.960;5.582;2023-07-13T15:57:44;6.60;;;2.25;;